sensor_id;sensor_type;location;lat;lon;timestamp;P1;durP1;ratioP1;P2;durP2;ratioP2
34896;SDS011;43407;51.828;-2.298;2023-03-04T00:00:55;8.57;;;7.68;;
34896;SDS011;43407;51.828;-2.298;2023-03-04T00:03:21;9.30;;;8.30;;
34896;SDS011;43407;51.828;-2.298;2023-03-04T00:05:46;8.73;;;7.82;;
34896;SDS011;43407;51.828;-2.298;2023-03-04T00:08:12;8.77;;;7.88;;
34896;SDS011;43407;51.828;-2.298;2023-03-04T00:10:37;8.43;;;7.38;;
34896;SDS011;43407;51.828;-2.298;2023-03-04T00:13:03;8.35;;;7.50;;
34896;SDS011;43407;51.828;-2.298;2023-03-04T00:15:28;8.18;;;7.38;;
34896;SDS011;43407;51.828;-2.298;2023-03-04T00:17:54;8.15;;;7.35;;
34896;SDS011;43407;51.828;-2.298;2023-03-04T00:20:20;9.80;;;7.65;;
34896;SDS011;43407;51.828;-2.298;2023-03-04T00:22:45;8.75;;;7.85;;
34896;SDS011;43407;51.828;-2.298;2023-03-04T00:25:11;8.80;;;7.90;;
34896;SDS011;43407;51.828;-2.298;2023-03-04T00:27:36;10.73;;;8.18;;
34896;SDS011;43407;51.828;-2.298;2023-03-04T00:30:02;9.48;;;8.15;;
34896;SDS011;43407;51.828;-2.298;2023-03-04T00:32:29;9.38;;;8.07;;
34896;SDS011;43407;51.828;-2.298;2023-03-04T00:34:54;9.23;;;8.07;;
34896;SDS011;43407;51.828;-2.298;2023-03-04T00:37:20;9.65;;;8.02;;
34896;SDS011;43407;51.828;-2.298;2023-03-04T00:39:45;8.65;;;7.75;;
34896;SDS011;43407;51.828;-2.298;2023-03-04T00:42:11;8.68;;;7.78;;
34896;SDS011;43407;51.828;-2.298;2023-03-04T00:44:37;11.07;;;8.10;;
34896;SDS011;43407;51.828;-2.298;2023-03-04T00:47:02;10.35;;;8.23;;
34896;SDS011;43407;51.828;-2.298;2023-03-04T00:49:28;9.13;;;8.23;;
34896;SDS011;43407;51.828;-2.298;2023-03-04T00:51:53;11.32;;;8.20;;
34896;SDS011;43407;51.828;-2.298;2023-03-04T00:54:19;10.25;;;9.10;;
34896;SDS011;43407;51.828;-2.298;2023-03-04T00:56:44;9.18;;;8.27;;
34896;SDS011;43407;51.828;-2.298;2023-03-04T00:59:10;9.75;;;8.10;;
34896;SDS011;43407;51.828;-2.298;2023-03-04T01:01:35;8.73;;;7.65;;
34896;SDS011;43407;51.828;-2.298;2023-03-04T01:04:01;8.50;;;7.53;;
34896;SDS011;43407;51.828;-2.298;2023-03-04T01:06:26;9.57;;;7.70;;
34896;SDS011;43407;51.828;-2.298;2023-03-04T01:08:52;9.23;;;7.82;;
34896;SDS011;43407;51.828;-2.298;2023-03-04T01:11:17;9.48;;;7.75;;
34896;SDS011;43407;51.828;-2.298;2023-03-04T01:13:43;9.38;;;8.38;;
34896;SDS011;43407;51.828;-2.298;2023-03-04T01:16:08;9.95;;;7.40;;
34896;SDS011;43407;51.828;-2.298;2023-03-04T01:18:35;10.20;;;8.52;;
34896;SDS011;43407;51.828;-2.298;2023-03-04T01:21:01;8.82;;;7.68;;
34896;SDS011;43407;51.828;-2.298;2023-03-04T01:23:26;9.57;;;7.90;;
34896;SDS011;43407;51.828;-2.298;2023-03-04T01:25:52;10.35;;;8.48;;
34896;SDS011;43407;51.828;-2.298;2023-03-04T01:28:17;11.18;;;8.93;;
34896;SDS011;43407;51.828;-2.298;2023-03-04T01:30:43;10.25;;;8.75;;
34896;SDS011;43407;51.828;-2.298;2023-03-04T01:33:08;13.80;;;9.77;;
34896;SDS011;43407;51.828;-2.298;2023-03-04T01:35:34;11.52;;;8.55;;
34896;SDS011;43407;51.828;-2.298;2023-03-04T01:37:59;14.15;;;8.98;;
34896;SDS011;43407;51.828;-2.298;2023-03-04T01:40:25;10.75;;;8.52;;
34896;SDS011;43407;51.828;-2.298;2023-03-04T01:42:50;8.35;;;7.13;;
34896;SDS011;43407;51.828;-2.298;2023-03-04T01:45:17;9.32;;;7.35;;
34896;SDS011;43407;51.828;-2.298;2023-03-04T01:47:43;11.15;;;7.97;;
34896;SDS011;43407;51.828;-2.298;2023-03-04T01:50:16;9.82;;;8.07;;
34896;SDS011;43407;51.828;-2.298;2023-03-04T01:52:45;11.10;;;8.57;;
34896;SDS011;43407;51.828;-2.298;2023-03-04T01:55:14;11.75;;;8.25;;
34896;SDS011;43407;51.828;-2.298;2023-03-04T01:57:40;9.55;;;8.07;;
34896;SDS011;43407;51.828;-2.298;2023-03-04T02:00:10;9.30;;;8.07;;
34896;SDS011;43407;51.828;-2.298;2023-03-04T02:02:42;9.80;;;8.07;;
34896;SDS011;43407;51.828;-2.298;2023-03-04T02:05:08;9.27;;;7.90;;
34896;SDS011;43407;51.828;-2.298;2023-03-04T02:07:33;11.38;;;8.52;;
34896;SDS011;43407;51.828;-2.298;2023-03-04T02:09:59;9.00;;;8.10;;
34896;SDS011;43407;51.828;-2.298;2023-03-04T02:12:24;12.32;;;8.88;;
34896;SDS011;43407;51.828;-2.298;2023-03-04T02:14:50;10.60;;;8.40;;
34896;SDS011;43407;51.828;-2.298;2023-03-04T02:17:16;9.02;;;7.30;;
34896;SDS011;43407;51.828;-2.298;2023-03-04T02:19:55;9.38;;;7.97;;
34896;SDS011;43407;51.828;-2.298;2023-03-04T02:22:26;9.45;;;8.13;;
34896;SDS011;43407;51.828;-2.298;2023-03-04T02:25:26;9.73;;;7.68;;
34896;SDS011;43407;51.828;-2.298;2023-03-04T02:27:46;10.15;;;7.80;;
34896;SDS011;43407;51.828;-2.298;2023-03-04T02:30:18;8.52;;;7.30;;
34896;SDS011;43407;51.828;-2.298;2023-03-04T02:32:44;9.63;;;7.43;;
34896;SDS011;43407;51.828;-2.298;2023-03-04T02:35:15;7.85;;;6.35;;
34896;SDS011;43407;51.828;-2.298;2023-03-04T02:37:42;10.45;;;6.65;;
34896;SDS011;43407;51.828;-2.298;2023-03-04T02:40:29;7.82;;;6.00;;
34896;SDS011;43407;51.828;-2.298;2023-03-04T02:42:59;9.05;;;6.55;;
34896;SDS011;43407;51.828;-2.298;2023-03-04T02:45:36;11.65;;;7.43;;
34896;SDS011;43407;51.828;-2.298;2023-03-04T02:48:02;8.35;;;6.35;;
34896;SDS011;43407;51.828;-2.298;2023-03-04T02:50:29;9.27;;;6.50;;
34896;SDS011;43407;51.828;-2.298;2023-03-04T02:52:57;8.00;;;6.55;;
34896;SDS011;43407;51.828;-2.298;2023-03-04T02:55:23;9.82;;;6.57;;
34896;SDS011;43407;51.828;-2.298;2023-03-04T02:57:48;10.23;;;7.22;;
34896;SDS011;43407;51.828;-2.298;2023-03-04T03:00:14;11.15;;;6.82;;
34896;SDS011;43407;51.828;-2.298;2023-03-04T03:02:40;11.65;;;7.90;;
34896;SDS011;43407;51.828;-2.298;2023-03-04T03:05:06;10.70;;;7.82;;
34896;SDS011;43407;51.828;-2.298;2023-03-04T03:07:31;15.73;;;8.77;;
34896;SDS011;43407;51.828;-2.298;2023-03-04T03:09:59;14.90;;;8.43;;
34896;SDS011;43407;51.828;-2.298;2023-03-04T03:12:25;11.73;;;8.13;;
34896;SDS011;43407;51.828;-2.298;2023-03-04T03:14:50;15.63;;;9.38;;
34896;SDS011;43407;51.828;-2.298;2023-03-04T03:17:16;11.15;;;8.10;;
34896;SDS011;43407;51.828;-2.298;2023-03-04T03:19:41;12.98;;;8.98;;
34896;SDS011;43407;51.828;-2.298;2023-03-04T03:22:07;10.40;;;8.13;;
34896;SDS011;43407;51.828;-2.298;2023-03-04T03:24:33;12.15;;;8.27;;
34896;SDS011;43407;51.828;-2.298;2023-03-04T03:26:59;10.05;;;7.72;;
34896;SDS011;43407;51.828;-2.298;2023-03-04T03:29:24;12.70;;;8.20;;
34896;SDS011;43407;51.828;-2.298;2023-03-04T03:31:50;14.32;;;10.00;;
34896;SDS011;43407;51.828;-2.298;2023-03-04T03:34:15;15.68;;;10.27;;
34896;SDS011;43407;51.828;-2.298;2023-03-04T03:36:41;14.02;;;10.45;;
34896;SDS011;43407;51.828;-2.298;2023-03-04T03:39:06;16.77;;;9.85;;
34896;SDS011;43407;51.828;-2.298;2023-03-04T03:41:32;15.15;;;9.55;;
34896;SDS011;43407;51.828;-2.298;2023-03-04T03:43:57;15.02;;;10.32;;
34896;SDS011;43407;51.828;-2.298;2023-03-04T03:46:23;15.13;;;9.93;;
34896;SDS011;43407;51.828;-2.298;2023-03-04T03:48:48;16.85;;;9.65;;
34896;SDS011;43407;51.828;-2.298;2023-03-04T03:51:14;12.57;;;8.70;;
34896;SDS011;43407;51.828;-2.298;2023-03-04T03:53:39;12.93;;;9.68;;
34896;SDS011;43407;51.828;-2.298;2023-03-04T03:56:05;13.88;;;9.43;;
34896;SDS011;43407;51.828;-2.298;2023-03-04T03:58:31;12.15;;;9.23;;
34896;SDS011;43407;51.828;-2.298;2023-03-04T04:00:56;11.35;;;8.68;;
34896;SDS011;43407;51.828;-2.298;2023-03-04T04:03:22;14.25;;;8.55;;
34896;SDS011;43407;51.828;-2.298;2023-03-04T04:05:47;10.98;;;8.68;;
34896;SDS011;43407;51.828;-2.298;2023-03-04T04:08:14;15.32;;;9.07;;
34896;SDS011;43407;51.828;-2.298;2023-03-04T04:10:40;13.77;;;8.95;;
34896;SDS011;43407;51.828;-2.298;2023-03-04T04:13:06;16.13;;;9.57;;
34896;SDS011;43407;51.828;-2.298;2023-03-04T04:15:32;12.35;;;9.73;;
34896;SDS011;43407;51.828;-2.298;2023-03-04T04:17:57;13.40;;;8.40;;
34896;SDS011;43407;51.828;-2.298;2023-03-04T04:20:23;12.90;;;7.82;;
34896;SDS011;43407;51.828;-2.298;2023-03-04T04:22:48;12.68;;;8.70;;
34896;SDS011;43407;51.828;-2.298;2023-03-04T04:25:14;11.30;;;8.38;;
34896;SDS011;43407;51.828;-2.298;2023-03-04T04:27:40;12.48;;;8.60;;
34896;SDS011;43407;51.828;-2.298;2023-03-04T04:30:06;12.07;;;7.85;;
34896;SDS011;43407;51.828;-2.298;2023-03-04T04:32:31;10.52;;;7.80;;
34896;SDS011;43407;51.828;-2.298;2023-03-04T04:34:57;9.73;;;6.93;;
34896;SDS011;43407;51.828;-2.298;2023-03-04T04:37:22;10.68;;;6.78;;
34896;SDS011;43407;51.828;-2.298;2023-03-04T04:39:48;10.48;;;6.28;;
34896;SDS011;43407;51.828;-2.298;2023-03-04T04:42:15;11.52;;;7.30;;
34896;SDS011;43407;51.828;-2.298;2023-03-04T04:44:41;13.50;;;6.72;;
34896;SDS011;43407;51.828;-2.298;2023-03-04T04:47:08;8.13;;;5.75;;
34896;SDS011;43407;51.828;-2.298;2023-03-04T04:49:33;7.85;;;5.60;;
34896;SDS011;43407;51.828;-2.298;2023-03-04T04:51:59;9.27;;;5.38;;
34896;SDS011;43407;51.828;-2.298;2023-03-04T04:54:25;9.48;;;5.43;;
34896;SDS011;43407;51.828;-2.298;2023-03-04T04:56:50;6.30;;;5.05;;
34896;SDS011;43407;51.828;-2.298;2023-03-04T04:59:16;5.90;;;4.63;;
34896;SDS011;43407;51.828;-2.298;2023-03-04T05:01:41;9.20;;;4.68;;
34896;SDS011;43407;51.828;-2.298;2023-03-04T05:04:07;8.45;;;4.93;;
34896;SDS011;43407;51.828;-2.298;2023-03-04T05:06:32;8.27;;;4.28;;
34896;SDS011;43407;51.828;-2.298;2023-03-04T05:08:58;8.25;;;4.20;;
34896;SDS011;43407;51.828;-2.298;2023-03-04T05:11:23;7.93;;;4.70;;
34896;SDS011;43407;51.828;-2.298;2023-03-04T05:13:49;9.38;;;4.75;;
34896;SDS011;43407;51.828;-2.298;2023-03-04T05:16:16;7.90;;;4.50;;
34896;SDS011;43407;51.828;-2.298;2023-03-04T05:18:42;10.93;;;5.13;;
34896;SDS011;43407;51.828;-2.298;2023-03-04T05:21:07;9.10;;;4.85;;
34896;SDS011;43407;51.828;-2.298;2023-03-04T05:23:34;6.18;;;4.45;;
34896;SDS011;43407;51.828;-2.298;2023-03-04T05:26:02;13.07;;;4.68;;
34896;SDS011;43407;51.828;-2.298;2023-03-04T05:28:29;12.73;;;5.43;;
34896;SDS011;43407;51.828;-2.298;2023-03-04T05:30:54;8.68;;;4.93;;
34896;SDS011;43407;51.828;-2.298;2023-03-04T05:33:20;8.85;;;5.30;;
34896;SDS011;43407;51.828;-2.298;2023-03-04T05:35:45;8.00;;;5.45;;
34896;SDS011;43407;51.828;-2.298;2023-03-04T05:38:13;9.57;;;5.38;;
34896;SDS011;43407;51.828;-2.298;2023-03-04T05:40:39;8.50;;;5.40;;
34896;SDS011;43407;51.828;-2.298;2023-03-04T05:43:05;8.57;;;5.63;;
34896;SDS011;43407;51.828;-2.298;2023-03-04T05:45:31;6.95;;;5.28;;
34896;SDS011;43407;51.828;-2.298;2023-03-04T05:47:57;9.10;;;4.70;;
34896;SDS011;43407;51.828;-2.298;2023-03-04T05:50:23;9.13;;;5.25;;
34896;SDS011;43407;51.828;-2.298;2023-03-04T05:52:49;7.78;;;4.97;;
34896;SDS011;43407;51.828;-2.298;2023-03-04T05:55:14;9.48;;;5.07;;
34896;SDS011;43407;51.828;-2.298;2023-03-04T05:57:40;8.63;;;4.40;;
34896;SDS011;43407;51.828;-2.298;2023-03-04T06:00:06;7.15;;;4.78;;
34896;SDS011;43407;51.828;-2.298;2023-03-04T06:02:36;11.25;;;5.18;;
34896;SDS011;43407;51.828;-2.298;2023-03-04T06:05:02;10.32;;;5.25;;
34896;SDS011;43407;51.828;-2.298;2023-03-04T06:07:28;10.88;;;4.82;;
34896;SDS011;43407;51.828;-2.298;2023-03-04T06:09:53;8.02;;;5.35;;
34896;SDS011;43407;51.828;-2.298;2023-03-04T06:12:19;6.68;;;4.63;;
34896;SDS011;43407;51.828;-2.298;2023-03-04T06:14:45;4.70;;;4.00;;
34896;SDS011;43407;51.828;-2.298;2023-03-04T06:17:10;5.30;;;4.15;;
34896;SDS011;43407;51.828;-2.298;2023-03-04T06:19:36;5.70;;;4.20;;
34896;SDS011;43407;51.828;-2.298;2023-03-04T06:22:05;6.95;;;4.32;;
34896;SDS011;43407;51.828;-2.298;2023-03-04T06:24:31;6.88;;;4.40;;
34896;SDS011;43407;51.828;-2.298;2023-03-04T06:26:57;6.90;;;4.43;;
34896;SDS011;43407;51.828;-2.298;2023-03-04T06:29:22;4.55;;;3.72;;
34896;SDS011;43407;51.828;-2.298;2023-03-04T06:31:48;8.05;;;4.15;;
34896;SDS011;43407;51.828;-2.298;2023-03-04T06:34:13;5.60;;;4.00;;
34896;SDS011;43407;51.828;-2.298;2023-03-04T06:36:39;4.45;;;4.05;;
34896;SDS011;43407;51.828;-2.298;2023-03-04T06:39:04;7.13;;;4.57;;
34896;SDS011;43407;51.828;-2.298;2023-03-04T06:41:30;6.43;;;4.38;;
34896;SDS011;43407;51.828;-2.298;2023-03-04T06:43:56;6.32;;;4.00;;
34896;SDS011;43407;51.828;-2.298;2023-03-04T06:46:22;6.93;;;4.70;;
34896;SDS011;43407;51.828;-2.298;2023-03-04T06:48:47;5.45;;;3.85;;
34896;SDS011;43407;51.828;-2.298;2023-03-04T06:51:13;5.40;;;4.05;;
34896;SDS011;43407;51.828;-2.298;2023-03-04T06:53:39;8.15;;;4.38;;
34896;SDS011;43407;51.828;-2.298;2023-03-04T06:56:05;9.40;;;4.90;;
34896;SDS011;43407;51.828;-2.298;2023-03-04T06:58:32;7.97;;;5.25;;
34896;SDS011;43407;51.828;-2.298;2023-03-04T07:01:07;12.52;;;6.95;;
34896;SDS011;43407;51.828;-2.298;2023-03-04T07:03:43;8.55;;;7.30;;
34896;SDS011;43407;51.828;-2.298;2023-03-04T07:06:10;12.80;;;8.40;;
34896;SDS011;43407;51.828;-2.298;2023-03-04T07:08:36;15.57;;;8.18;;
34896;SDS011;43407;51.828;-2.298;2023-03-04T07:11:02;14.80;;;8.77;;
34896;SDS011;43407;51.828;-2.298;2023-03-04T07:13:27;10.15;;;8.18;;
34896;SDS011;43407;51.828;-2.298;2023-03-04T07:15:53;11.00;;;8.05;;
34896;SDS011;43407;51.828;-2.298;2023-03-04T07:18:18;11.25;;;7.75;;
34896;SDS011;43407;51.828;-2.298;2023-03-04T07:20:44;9.05;;;6.63;;
34896;SDS011;43407;51.828;-2.298;2023-03-04T07:23:10;11.82;;;7.68;;
34896;SDS011;43407;51.828;-2.298;2023-03-04T07:25:35;9.70;;;7.28;;
34896;SDS011;43407;51.828;-2.298;2023-03-04T07:28:00;11.07;;;7.90;;
34896;SDS011;43407;51.828;-2.298;2023-03-04T07:30:26;9.32;;;7.57;;
34896;SDS011;43407;51.828;-2.298;2023-03-04T07:32:52;13.63;;;7.68;;
34896;SDS011;43407;51.828;-2.298;2023-03-04T07:35:17;12.10;;;7.65;;
34896;SDS011;43407;51.828;-2.298;2023-03-04T07:37:43;11.73;;;7.50;;
34896;SDS011;43407;51.828;-2.298;2023-03-04T07:40:09;10.23;;;7.47;;
34896;SDS011;43407;51.828;-2.298;2023-03-04T07:42:35;13.10;;;7.32;;
34896;SDS011;43407;51.828;-2.298;2023-03-04T07:45:01;9.00;;;6.78;;
34896;SDS011;43407;51.828;-2.298;2023-03-04T07:47:27;10.90;;;7.03;;
34896;SDS011;43407;51.828;-2.298;2023-03-04T07:49:52;9.23;;;6.25;;
34896;SDS011;43407;51.828;-2.298;2023-03-04T07:52:18;9.73;;;7.03;;
34896;SDS011;43407;51.828;-2.298;2023-03-04T07:54:44;9.80;;;7.28;;
34896;SDS011;43407;51.828;-2.298;2023-03-04T07:57:09;10.48;;;7.22;;
34896;SDS011;43407;51.828;-2.298;2023-03-04T07:59:35;8.70;;;7.13;;
34896;SDS011;43407;51.828;-2.298;2023-03-04T08:02:00;8.82;;;7.05;;
34896;SDS011;43407;51.828;-2.298;2023-03-04T08:04:26;10.45;;;7.05;;
34896;SDS011;43407;51.828;-2.298;2023-03-04T08:06:51;14.68;;;8.30;;
34896;SDS011;43407;51.828;-2.298;2023-03-04T08:09:17;10.18;;;7.47;;
34896;SDS011;43407;51.828;-2.298;2023-03-04T08:11:42;10.73;;;7.50;;
34896;SDS011;43407;51.828;-2.298;2023-03-04T08:14:09;10.25;;;6.82;;
34896;SDS011;43407;51.828;-2.298;2023-03-04T08:16:35;10.88;;;6.32;;
34896;SDS011;43407;51.828;-2.298;2023-03-04T08:19:03;8.05;;;6.28;;
34896;SDS011;43407;51.828;-2.298;2023-03-04T08:21:29;8.07;;;6.03;;
34896;SDS011;43407;51.828;-2.298;2023-03-04T08:23:56;10.45;;;6.43;;
34896;SDS011;43407;51.828;-2.298;2023-03-04T08:26:25;8.25;;;5.97;;
34896;SDS011;43407;51.828;-2.298;2023-03-04T08:28:52;8.70;;;5.78;;
34896;SDS011;43407;51.828;-2.298;2023-03-04T08:31:19;7.63;;;5.32;;
34896;SDS011;43407;51.828;-2.298;2023-03-04T08:33:44;9.25;;;5.43;;
34896;SDS011;43407;51.828;-2.298;2023-03-04T08:36:11;8.52;;;5.32;;
34896;SDS011;43407;51.828;-2.298;2023-03-04T08:38:37;8.88;;;5.80;;
34896;SDS011;43407;51.828;-2.298;2023-03-04T08:41:03;9.70;;;6.47;;
34896;SDS011;43407;51.828;-2.298;2023-03-04T08:43:29;10.95;;;6.75;;
34896;SDS011;43407;51.828;-2.298;2023-03-04T08:45:55;10.95;;;6.82;;
34896;SDS011;43407;51.828;-2.298;2023-03-04T08:48:21;13.98;;;7.05;;
34896;SDS011;43407;51.828;-2.298;2023-03-04T08:50:47;8.20;;;6.75;;
34896;SDS011;43407;51.828;-2.298;2023-03-04T08:53:14;9.82;;;7.18;;
34896;SDS011;43407;51.828;-2.298;2023-03-04T08:55:40;10.55;;;7.28;;
34896;SDS011;43407;51.828;-2.298;2023-03-04T08:58:06;7.97;;;7.13;;
34896;SDS011;43407;51.828;-2.298;2023-03-04T09:00:34;8.88;;;7.13;;
34896;SDS011;43407;51.828;-2.298;2023-03-04T09:03:00;13.23;;;7.45;;
34896;SDS011;43407;51.828;-2.298;2023-03-04T09:05:27;9.50;;;7.80;;
34896;SDS011;43407;51.828;-2.298;2023-03-04T09:07:54;10.75;;;7.80;;
34896;SDS011;43407;51.828;-2.298;2023-03-04T09:10:19;11.70;;;8.77;;
34896;SDS011;43407;51.828;-2.298;2023-03-04T09:12:45;12.18;;;9.18;;
34896;SDS011;43407;51.828;-2.298;2023-03-04T09:15:10;13.02;;;9.10;;
34896;SDS011;43407;51.828;-2.298;2023-03-04T09:17:36;12.95;;;9.60;;
34896;SDS011;43407;51.828;-2.298;2023-03-04T09:20:02;11.63;;;9.50;;
34896;SDS011;43407;51.828;-2.298;2023-03-04T09:22:28;13.82;;;9.32;;
34896;SDS011;43407;51.828;-2.298;2023-03-04T09:24:55;15.07;;;9.45;;
34896;SDS011;43407;51.828;-2.298;2023-03-04T09:27:21;12.77;;;9.25;;
34896;SDS011;43407;51.828;-2.298;2023-03-04T09:29:46;12.00;;;9.70;;
34896;SDS011;43407;51.828;-2.298;2023-03-04T09:32:12;12.93;;;9.60;;
34896;SDS011;43407;51.828;-2.298;2023-03-04T09:34:39;14.20;;;9.07;;
34896;SDS011;43407;51.828;-2.298;2023-03-04T09:37:04;16.60;;;9.82;;
34896;SDS011;43407;51.828;-2.298;2023-03-04T09:39:30;10.20;;;8.45;;
34896;SDS011;43407;51.828;-2.298;2023-03-04T09:41:56;11.27;;;8.52;;
34896;SDS011;43407;51.828;-2.298;2023-03-04T09:44:25;13.18;;;9.50;;
34896;SDS011;43407;51.828;-2.298;2023-03-04T09:46:51;14.90;;;10.45;;
34896;SDS011;43407;51.828;-2.298;2023-03-04T09:49:19;16.02;;;9.52;;
34896;SDS011;43407;51.828;-2.298;2023-03-04T09:52:50;15.82;;;9.70;;
34896;SDS011;43407;51.828;-2.298;2023-03-04T09:54:56;12.50;;;9.05;;
34896;SDS011;43407;51.828;-2.298;2023-03-04T09:57:27;11.13;;;8.93;;
34896;SDS011;43407;51.828;-2.298;2023-03-04T10:00:04;14.95;;;8.85;;
34896;SDS011;43407;51.828;-2.298;2023-03-04T10:05:12;12.15;;;8.75;;
34896;SDS011;43407;51.828;-2.298;2023-03-04T10:07:40;11.55;;;8.95;;
34896;SDS011;43407;51.828;-2.298;2023-03-04T10:13:10;10.88;;;8.55;;
34896;SDS011;43407;51.828;-2.298;2023-03-04T10:15:40;10.82;;;9.18;;
34896;SDS011;43407;51.828;-2.298;2023-03-04T10:18:27;12.75;;;8.82;;
34896;SDS011;43407;51.828;-2.298;2023-03-04T10:23:38;15.93;;;9.23;;
34896;SDS011;43407;51.828;-2.298;2023-03-04T10:26:15;12.07;;;8.05;;
34896;SDS011;43407;51.828;-2.298;2023-03-04T10:28:44;12.63;;;8.35;;
34896;SDS011;43407;51.828;-2.298;2023-03-04T10:33:47;9.63;;;7.85;;
34896;SDS011;43407;51.828;-2.298;2023-03-04T10:38:54;11.82;;;7.88;;
34896;SDS011;43407;51.828;-2.298;2023-03-04T10:41:23;11.10;;;8.02;;
34896;SDS011;43407;51.828;-2.298;2023-03-04T10:44:14;13.93;;;7.85;;
34896;SDS011;43407;51.828;-2.298;2023-03-04T10:46:43;12.50;;;8.45;;
34896;SDS011;43407;51.828;-2.298;2023-03-04T10:49:10;11.75;;;8.05;;
34896;SDS011;43407;51.828;-2.298;2023-03-04T10:51:44;10.63;;;7.05;;
34896;SDS011;43407;51.828;-2.298;2023-03-04T10:57:02;8.75;;;7.13;;
34896;SDS011;43407;51.828;-2.298;2023-03-04T11:05:15;8.90;;;7.43;;
34896;SDS011;43407;51.828;-2.298;2023-03-04T11:07:44;10.02;;;7.75;;
34896;SDS011;43407;51.828;-2.298;2023-03-04T11:10:21;9.32;;;7.28;;
34896;SDS011;43407;51.828;-2.298;2023-03-04T11:13:00;11.27;;;7.97;;
34896;SDS011;43407;51.828;-2.298;2023-03-04T11:15:27;11.70;;;6.97;;
34896;SDS011;43407;51.828;-2.298;2023-03-04T11:18:09;9.45;;;7.10;;
34896;SDS011;43407;51.828;-2.298;2023-03-04T11:20:41;13.63;;;7.57;;
34896;SDS011;43407;51.828;-2.298;2023-03-04T11:26:01;10.48;;;7.50;;
34896;SDS011;43407;51.828;-2.298;2023-03-04T11:28:45;12.88;;;8.23;;
34896;SDS011;43407;51.828;-2.298;2023-03-04T11:31:39;10.05;;;8.43;;
34896;SDS011;43407;51.828;-2.298;2023-03-04T11:37:05;12.30;;;7.97;;
34896;SDS011;43407;51.828;-2.298;2023-03-04T11:39:43;12.18;;;8.75;;
34896;SDS011;43407;51.828;-2.298;2023-03-04T11:44:49;13.18;;;8.25;;
34896;SDS011;43407;51.828;-2.298;2023-03-04T11:52:18;13.05;;;8.98;;
34896;SDS011;43407;51.828;-2.298;2023-03-04T11:57:29;17.63;;;10.07;;
34896;SDS011;43407;51.828;-2.298;2023-03-04T12:05:42;8.80;;;7.88;;
34896;SDS011;43407;51.828;-2.298;2023-03-04T12:14:24;11.95;;;8.63;;
34896;SDS011;43407;51.828;-2.298;2023-03-04T12:22:22;13.88;;;10.63;;
34896;SDS011;43407;51.828;-2.298;2023-03-04T12:30:33;10.52;;;8.77;;
34896;SDS011;43407;51.828;-2.298;2023-03-04T12:33:26;11.05;;;8.23;;
34896;SDS011;43407;51.828;-2.298;2023-03-04T12:38:52;14.05;;;9.23;;
34896;SDS011;43407;51.828;-2.298;2023-03-04T12:43:59;10.65;;;8.60;;
34896;SDS011;43407;51.828;-2.298;2023-03-04T12:49:18;11.98;;;9.35;;
34896;SDS011;43407;51.828;-2.298;2023-03-04T12:51:57;11.27;;;9.00;;
34896;SDS011;43407;51.828;-2.298;2023-03-04T12:54:31;13.07;;;8.77;;
34896;SDS011;43407;51.828;-2.298;2023-03-04T12:59:34;10.40;;;8.30;;
34896;SDS011;43407;51.828;-2.298;2023-03-04T13:05:28;13.00;;;9.00;;
34896;SDS011;43407;51.828;-2.298;2023-03-04T13:10:42;10.32;;;9.15;;
34896;SDS011;43407;51.828;-2.298;2023-03-04T13:16:02;12.07;;;9.60;;
34896;SDS011;43407;51.828;-2.298;2023-03-04T13:18:45;15.07;;;10.40;;
34896;SDS011;43407;51.828;-2.298;2023-03-04T13:21:24;16.48;;;10.75;;
34896;SDS011;43407;51.828;-2.298;2023-03-04T13:23:51;13.13;;;9.93;;
34896;SDS011;43407;51.828;-2.298;2023-03-04T13:26:27;13.98;;;9.13;;
34896;SDS011;43407;51.828;-2.298;2023-03-04T13:29:08;11.73;;;8.23;;
34896;SDS011;43407;51.828;-2.298;2023-03-04T13:43:17;12.75;;;7.13;;
34896;SDS011;43407;51.828;-2.298;2023-03-04T13:45:50;12.50;;;6.65;;
34896;SDS011;43407;51.828;-2.298;2023-03-04T13:48:33;7.97;;;5.88;;
34896;SDS011;43407;51.828;-2.298;2023-03-04T13:51:01;7.43;;;5.50;;
34896;SDS011;43407;51.828;-2.298;2023-03-04T13:53:37;10.27;;;6.50;;
34896;SDS011;43407;51.828;-2.298;2023-03-04T13:58:33;8.40;;;6.05;;
34896;SDS011;43407;51.828;-2.298;2023-03-04T14:00:59;11.77;;;6.50;;
34896;SDS011;43407;51.828;-2.298;2023-03-04T14:03:26;8.45;;;5.75;;
34896;SDS011;43407;51.828;-2.298;2023-03-04T14:06:11;9.40;;;6.68;;
34896;SDS011;43407;51.828;-2.298;2023-03-04T14:08:42;8.48;;;6.47;;
34896;SDS011;43407;51.828;-2.298;2023-03-04T14:11:11;8.32;;;6.13;;
34896;SDS011;43407;51.828;-2.298;2023-03-04T14:13:38;6.85;;;5.38;;
34896;SDS011;43407;51.828;-2.298;2023-03-04T14:16:03;9.35;;;6.18;;
34896;SDS011;43407;51.828;-2.298;2023-03-04T14:18:29;10.80;;;6.70;;
34896;SDS011;43407;51.828;-2.298;2023-03-04T14:20:54;8.52;;;6.57;;
34896;SDS011;43407;51.828;-2.298;2023-03-04T14:23:24;9.52;;;6.55;;
34896;SDS011;43407;51.828;-2.298;2023-03-04T14:25:56;12.63;;;6.60;;
34896;SDS011;43407;51.828;-2.298;2023-03-04T14:28:41;7.78;;;5.63;;
34896;SDS011;43407;51.828;-2.298;2023-03-04T14:31:11;6.50;;;5.00;;
34896;SDS011;43407;51.828;-2.298;2023-03-04T14:33:42;8.45;;;5.22;;
34896;SDS011;43407;51.828;-2.298;2023-03-04T14:36:12;8.23;;;5.13;;
34896;SDS011;43407;51.828;-2.298;2023-03-04T14:38:40;10.90;;;5.60;;
34896;SDS011;43407;51.828;-2.298;2023-03-04T14:43:35;6.93;;;6.07;;
34896;SDS011;43407;51.828;-2.298;2023-03-04T14:46:06;6.95;;;5.60;;
34896;SDS011;43407;51.828;-2.298;2023-03-04T14:48:33;8.20;;;6.20;;
34896;SDS011;43407;51.828;-2.298;2023-03-04T14:50:59;11.50;;;6.30;;
34896;SDS011;43407;51.828;-2.298;2023-03-04T14:53:29;7.35;;;6.38;;
34896;SDS011;43407;51.828;-2.298;2023-03-04T14:56:07;8.38;;;5.35;;
34896;SDS011;43407;51.828;-2.298;2023-03-04T15:03:31;6.40;;;4.68;;
34896;SDS011;43407;51.828;-2.298;2023-03-04T15:06:06;7.82;;;5.40;;
34896;SDS011;43407;51.828;-2.298;2023-03-04T15:08:40;5.78;;;4.88;;
34896;SDS011;43407;51.828;-2.298;2023-03-04T15:11:06;9.70;;;6.18;;
34896;SDS011;43407;51.828;-2.298;2023-03-04T15:13:43;6.78;;;5.75;;
34896;SDS011;43407;51.828;-2.298;2023-03-04T15:16:11;6.88;;;5.50;;
34896;SDS011;43407;51.828;-2.298;2023-03-04T15:18:38;10.05;;;6.22;;
34896;SDS011;43407;51.828;-2.298;2023-03-04T15:23:44;9.18;;;5.72;;
34896;SDS011;43407;51.828;-2.298;2023-03-04T15:26:09;10.18;;;6.43;;
34896;SDS011;43407;51.828;-2.298;2023-03-04T15:28:38;8.40;;;5.82;;
34896;SDS011;43407;51.828;-2.298;2023-03-04T15:31:06;9.00;;;6.47;;
34896;SDS011;43407;51.828;-2.298;2023-03-04T15:33:39;7.70;;;6.53;;
34896;SDS011;43407;51.828;-2.298;2023-03-04T15:36:08;9.88;;;6.55;;
34896;SDS011;43407;51.828;-2.298;2023-03-04T15:38:37;9.70;;;6.07;;
34896;SDS011;43407;51.828;-2.298;2023-03-04T15:41:03;7.70;;;5.70;;
34896;SDS011;43407;51.828;-2.298;2023-03-04T15:43:28;9.93;;;6.82;;
34896;SDS011;43407;51.828;-2.298;2023-03-04T15:45:54;6.95;;;6.25;;
34896;SDS011;43407;51.828;-2.298;2023-03-04T15:48:20;7.70;;;5.55;;
34896;SDS011;43407;51.828;-2.298;2023-03-04T15:50:58;6.15;;;5.32;;
34896;SDS011;43407;51.828;-2.298;2023-03-04T15:56:00;11.70;;;7.05;;
34896;SDS011;43407;51.828;-2.298;2023-03-04T15:58:27;10.50;;;7.18;;
34896;SDS011;43407;51.828;-2.298;2023-03-04T16:00:53;9.13;;;7.20;;
34896;SDS011;43407;51.828;-2.298;2023-03-04T16:03:19;8.82;;;7.38;;
34896;SDS011;43407;51.828;-2.298;2023-03-04T16:05:49;7.80;;;7.00;;
34896;SDS011;43407;51.828;-2.298;2023-03-04T16:08:20;12.02;;;6.70;;
34896;SDS011;43407;51.828;-2.298;2023-03-04T16:10:49;7.70;;;6.90;;
34896;SDS011;43407;51.828;-2.298;2023-03-04T16:13:17;8.90;;;6.28;;
34896;SDS011;43407;51.828;-2.298;2023-03-04T16:15:46;10.20;;;6.10;;
34896;SDS011;43407;51.828;-2.298;2023-03-04T16:18:12;8.43;;;6.28;;
34896;SDS011;43407;51.828;-2.298;2023-03-04T16:20:39;8.90;;;5.43;;